createdAt,value
2022-11-01T00:03:46.360Z,13.67
2022-11-01T00:08:39.620Z,16.13
2022-11-01T00:13:34.777Z,15.00
2022-11-01T00:18:28.682Z,14.40
2022-11-01T00:23:22.684Z,14.83
2022-11-01T00:28:16.224Z,13.03
2022-11-01T00:33:10.855Z,12.83
2022-11-01T00:38:05.091Z,12.70
2022-11-01T00:42:58.394Z,13.10
2022-11-01T00:47:51.739Z,12.90
2022-11-01T00:52:46.358Z,13.57
2022-11-01T00:57:39.681Z,14.37
2022-11-01T01:02:33.298Z,13.53
2022-11-01T01:07:26.601Z,13.27
2022-11-01T01:12:21.366Z,13.93
2022-11-01T01:17:14.861Z,14.30
2022-11-01T01:22:08.169Z,13.80
2022-11-01T01:27:01.668Z,13.57
2022-11-01T01:31:56.421Z,13.87
2022-11-01T01:36:49.738Z,14.17
2022-11-01T01:41:58.144Z,13.93
2022-11-01T01:46:51.401Z,13.27
2022-11-01T01:51:46.413Z,13.77
2022-11-01T01:56:39.789Z,14.80
2022-11-01T02:01:35.305Z,14.77
2022-11-01T02:06:29.255Z,14.10
2022-11-01T02:11:24.230Z,14.50
2022-11-01T02:16:45.301Z,13.90
2022-11-01T02:21:59.635Z,14.37
2022-11-01T02:27:14.135Z,13.97
2022-11-01T02:32:21.163Z,14.03
2022-11-01T02:37:23.916Z,14.20
2022-11-01T02:42:26.776Z,13.70
2022-11-01T02:47:22.037Z,13.37
2022-11-01T02:52:23.441Z,13.97
2022-11-01T02:57:31.921Z,14.67
2022-11-01T03:02:40.391Z,15.53
2022-11-01T03:07:34.150Z,14.20
2022-11-01T03:12:34.052Z,16.77
2022-11-01T03:17:40.479Z,16.93
2022-11-01T03:22:43.914Z,16.70
2022-11-01T03:27:42.410Z,14.73
2022-11-01T03:32:44.725Z,16.03
2022-11-01T03:37:45.251Z,15.40
2022-11-01T03:42:41.670Z,15.57
2022-11-01T03:47:36.661Z,14.00
2022-11-01T03:52:29.939Z,13.90
2022-11-01T03:57:23.775Z,13.07
2022-11-01T04:02:17.004Z,12.10
2022-11-01T04:07:11.631Z,12.67
2022-11-01T04:12:05.091Z,14.93
2022-11-01T04:17:15.520Z,13.90
2022-11-01T04:22:08.796Z,13.83
2022-11-01T04:27:03.434Z,12.63
2022-11-01T04:31:56.763Z,15.90
2022-11-01T04:36:50.016Z,14.33
2022-11-01T04:41:43.315Z,16.07
2022-11-01T04:46:38.054Z,16.53
2022-11-01T04:51:31.337Z,15.53
2022-11-01T04:56:24.697Z,15.57
2022-11-01T05:01:18.008Z,16.27
2022-11-01T05:06:12.785Z,15.87
2022-11-01T05:11:06.366Z,15.40
2022-11-01T05:16:18.417Z,22.77
2022-11-01T05:21:13.912Z,28.70
2022-11-01T05:26:07.393Z,31.30
2022-11-01T05:31:00.710Z,17.87
2022-11-01T05:35:53.945Z,17.17
2022-11-01T05:40:48.745Z,18.03
2022-11-01T05:45:42.601Z,17.60
2022-11-01T05:50:35.864Z,15.50
2022-11-01T05:55:29.148Z,13.93
2022-11-01T06:00:23.811Z,19.60
2022-11-01T06:05:17.235Z,16.80
2022-11-01T06:10:10.994Z,16.80
2022-11-01T06:15:04.477Z,17.77
2022-11-01T06:19:59.161Z,18.13
2022-11-01T06:24:52.684Z,16.07
2022-11-01T06:29:45.978Z,16.53
2022-11-01T06:34:42.340Z,17.13
2022-11-01T06:39:39.550Z,15.40
2022-11-01T06:44:32.935Z,15.07
2022-11-01T06:49:26.231Z,23.75
2022-11-01T06:54:19.528Z,24.00
2022-11-01T06:59:14.845Z,16.80
2022-11-01T07:04:08.211Z,16.50
2022-11-01T07:09:01.933Z,14.67
2022-11-01T07:13:55.307Z,14.00
2022-11-01T07:18:50.021Z,16.63
2022-11-01T07:23:43.270Z,13.33
2022-11-01T07:28:36.553Z,13.73
2022-11-01T07:33:29.862Z,13.83
2022-11-01T07:38:24.615Z,16.00
2022-11-01T07:43:19.046Z,22.73
2022-11-01T07:48:15.117Z,18.83
2022-11-01T07:53:11.411Z,77.60
2022-11-01T07:58:07.089Z,17.90
2022-11-01T08:03:04.438Z,15.50
2022-11-01T08:07:57.959Z,15.20
2022-11-01T08:12:51.304Z,14.03
2022-11-01T08:17:45.942Z,22.20
2022-11-01T08:22:41.132Z,16.60
2022-11-01T08:27:35.462Z,11.00
2022-11-01T08:32:28.921Z,13.30
2022-11-01T08:37:23.745Z,17.33
2022-11-01T08:42:17.066Z,11.23
2022-11-01T08:47:11.480Z,10.47
2022-11-01T08:52:05.937Z,9.93
2022-11-01T08:57:02.581Z,8.43
2022-11-01T09:01:55.976Z,6.40
2022-11-01T09:06:49.363Z,6.70
2022-11-01T09:11:42.678Z,5.47
2022-11-01T09:16:37.369Z,5.60
2022-11-01T09:21:32.013Z,5.20
2022-11-01T09:26:27.103Z,5.27
2022-11-01T09:31:21.708Z,4.93
2022-11-01T09:36:17.055Z,4.40
2022-11-01T09:41:25.507Z,4.23
2022-11-01T09:46:26.304Z,3.87
2022-11-01T09:51:25.374Z,4.33
2022-11-01T09:56:30.555Z,4.07
2022-11-01T10:01:54.591Z,3.95
2022-11-01T10:07:00.670Z,4.15
2022-11-01T10:12:16.350Z,3.97
2022-11-01T10:17:15.463Z,4.40
2022-11-01T10:22:19.438Z,3.72
2022-11-01T10:27:21.764Z,4.15
2022-11-01T10:32:29.319Z,3.53
2022-11-01T10:37:32.787Z,3.08
2022-11-01T10:42:30.721Z,4.07
2022-11-01T10:47:26.359Z,4.18
2022-11-01T10:52:29.353Z,4.03
2022-11-01T10:57:40.137Z,4.07
2022-11-01T11:02:41.299Z,3.67
2022-11-01T11:07:36.089Z,3.88
2022-11-01T11:12:32.107Z,3.35
2022-11-01T11:17:31.383Z,3.45
2022-11-01T11:22:26.432Z,3.40
2022-11-01T11:27:25.271Z,3.15
2022-11-01T11:32:23.251Z,3.67
2022-11-01T11:37:23.862Z,3.47
2022-11-01T11:42:25.750Z,3.17
2022-11-01T11:47:24.843Z,3.85
2022-11-01T11:52:26.754Z,3.28
2022-11-01T11:57:26.927Z,3.20
2022-11-01T12:02:25.829Z,3.15
2022-11-01T12:07:29.595Z,3.20
2022-11-01T12:12:28.994Z,2.92
2022-11-01T12:17:36.679Z,2.55
2022-11-01T12:22:35.299Z,2.58
2022-11-01T12:27:33.994Z,2.72
2022-11-01T12:32:33.837Z,2.90
2022-11-01T12:37:35.030Z,2.97
2022-11-01T12:42:38.333Z,3.00
2022-11-01T12:47:39.914Z,2.40
2022-11-01T12:52:42.349Z,2.42
2022-11-01T12:57:37.092Z,2.47
2022-11-01T13:02:54.620Z,2.42
2022-11-01T13:08:04.807Z,2.58
2022-11-01T13:13:14.970Z,2.95
2022-11-01T13:18:20.514Z,2.50
2022-11-01T13:23:26.589Z,2.58
2022-11-01T13:28:48.769Z,2.58
2022-11-01T13:33:52.546Z,2.75
2022-11-01T13:38:58.428Z,2.60
2022-11-01T13:44:00.689Z,2.53
2022-11-01T13:50:04.925Z,2.83
2022-11-01T13:55:16.081Z,2.70
2022-11-01T14:00:44.243Z,2.80
2022-11-01T14:05:40.224Z,2.35
2022-11-01T14:10:50.182Z,2.15
2022-11-01T14:16:19.488Z,2.30
2022-11-01T14:21:31.402Z,2.05
2022-11-01T14:27:25.407Z,2.67
2022-11-01T14:32:23.674Z,2.40
2022-11-01T14:37:27.078Z,2.20
2022-11-01T14:42:27.146Z,2.00
2022-11-01T14:47:41.091Z,2.67
2022-11-01T14:52:42.976Z,2.60
2022-11-01T14:57:36.845Z,2.10
2022-11-01T15:02:32.839Z,2.15
2022-11-01T15:07:31.306Z,2.85
2022-11-01T15:12:28.319Z,3.10
2022-11-01T15:17:25.570Z,2.67
2022-11-01T15:22:25.103Z,2.65
2022-11-01T15:27:24.040Z,2.22
2022-11-01T15:32:26.670Z,2.35
2022-11-01T15:37:26.029Z,2.40
2022-11-01T15:42:24.467Z,2.88
2022-11-01T15:47:23.571Z,2.55
2022-11-01T15:52:23.017Z,2.63
2022-11-01T15:57:23.883Z,2.97
2022-11-01T16:02:26.018Z,3.15
2022-11-01T16:07:23.308Z,3.83
2022-11-01T16:12:21.205Z,2.97
2022-11-01T16:17:32.909Z,3.60
2022-11-01T16:22:35.060Z,3.95
2022-11-01T16:27:29.669Z,3.90
2022-11-01T16:32:28.900Z,3.78
2022-11-01T16:37:24.860Z,3.28
2022-11-01T16:42:21.086Z,3.15
2022-11-01T16:47:17.446Z,2.90
2022-11-01T16:52:12.527Z,3.30
2022-11-01T16:57:06.392Z,3.70
2022-11-01T17:02:03.844Z,3.75
2022-11-01T17:06:59.132Z,4.93
2022-11-01T17:11:54.333Z,5.20
2022-11-01T17:16:49.663Z,4.40
2022-11-01T17:21:44.387Z,3.83
2022-11-01T17:26:37.793Z,3.70
2022-11-01T17:31:31.111Z,2.97
2022-11-01T17:36:24.403Z,2.90
2022-11-01T17:41:21.104Z,2.63
2022-11-01T17:51:53.347Z,3.33
2022-11-01T17:56:50.086Z,3.20
2022-11-01T18:01:51.149Z,3.00
2022-11-01T18:06:44.604Z,3.60
2022-11-01T18:17:35.769Z,3.63
2022-11-01T18:22:45.549Z,3.97
2022-11-01T18:27:40.209Z,3.87
2022-11-01T18:33:10.410Z,4.40
2022-11-01T18:38:39.885Z,3.43
2022-11-01T18:43:38.276Z,4.50
2022-11-01T18:48:40.745Z,4.90
2022-11-01T18:53:36.977Z,4.40
2022-11-01T18:58:30.336Z,3.70
2022-11-01T19:03:32.170Z,4.43
2022-11-01T19:08:27.957Z,4.03
2022-11-01T19:13:31.680Z,4.20
2022-11-01T19:18:26.994Z,3.50
2022-11-01T19:23:36.164Z,3.43
2022-11-01T19:28:51.749Z,3.50
2022-11-01T19:34:05.596Z,2.83
2022-11-01T19:39:00.143Z,3.30
2022-11-01T19:43:54.943Z,2.60
2022-11-01T19:48:49.611Z,3.33
2022-11-01T19:53:47.875Z,3.80
2022-11-01T19:58:48.903Z,3.70
2022-11-01T20:03:47.140Z,4.13
2022-11-01T20:08:50.894Z,4.67
2022-11-01T20:13:50.565Z,4.83
2022-11-01T20:18:49.262Z,5.60
2022-11-01T20:23:46.947Z,6.63
2022-11-01T20:28:46.065Z,6.20
2022-11-01T20:33:45.135Z,5.30
2022-11-01T20:38:39.143Z,4.70
2022-11-01T20:43:35.327Z,4.93
2022-11-01T20:48:31.428Z,11.07
2022-11-01T20:53:28.667Z,15.77
2022-11-01T20:58:23.284Z,20.63
2022-11-01T21:03:21.490Z,14.40
2022-11-01T21:08:31.166Z,8.93
2022-11-01T21:13:33.724Z,5.07
2022-11-01T21:19:45.165Z,3.60
2022-11-01T21:24:52.352Z,3.67
2022-11-01T21:30:18.466Z,6.27
2022-11-01T21:35:47.320Z,7.43
2022-11-01T21:47:33.640Z,11.10
2022-11-01T21:52:37.284Z,17.27
2022-11-01T21:57:33.122Z,17.60
2022-11-01T22:02:26.494Z,12.30
2022-11-01T22:07:21.148Z,7.60
2022-11-01T22:12:15.826Z,7.80
2022-11-01T22:17:09.164Z,5.77
2022-11-01T22:22:02.393Z,4.80
2022-11-01T22:26:55.682Z,4.37
2022-11-01T22:31:50.320Z,8.73
2022-11-01T22:36:43.613Z,16.50
2022-11-01T22:41:39.516Z,10.40
2022-11-01T22:46:45.549Z,10.33
2022-11-01T22:51:44.943Z,10.10
2022-11-01T22:56:38.183Z,9.40
2022-11-01T23:01:34.723Z,8.87
2022-11-01T23:06:36.064Z,10.73
2022-11-01T23:11:49.464Z,5.80
2022-11-01T23:16:45.649Z,5.03
2022-11-01T23:21:39.146Z,5.57
2022-11-01T23:26:34.302Z,6.10
2022-11-01T23:31:30.211Z,5.60
2022-11-01T23:37:00.948Z,4.63
2022-11-01T23:41:55.914Z,4.13
2022-11-01T23:46:49.222Z,3.77
2022-11-01T23:51:42.783Z,3.47
2022-11-01T23:56:36.101Z,3.40
